aviador You're here:

KMAW Decoded Metar

in
Report Time2017-04-25 08:35:00
UTC Time2017-04-25 08:31:19
Flight Rules vfr VFR
Wind200° at 05 kt
W.Decomp.*RWY 18: 4.7 kt HW 1.7 kt RCW
RWY 14: 2.5 kt HW 4.3 kt RCW
W.Rank200° ranks 1
Current wind is below 200° avg. (8.7)
Visibility9999 m
Phenomena:N/A
Clouds:N/A
Expected CloudBase > 800 ft AGL from Temp-Dew spread
CeilingNone
Temp14°C
Dew Point12°C (88% RH)
AAT12.8°C
QNH1007 hPa
Raw Report
KMAW 250835Z AUTO 20005KT 10SM CLR 14/12 A2974 RMK AO2=

Extra information for KMAW:More info

Social comments